sensor_id;sensor_type;location;lat;lon;timestamp;pressure;altitude;pressure_sealevel;temperature;humidity
19259;BME280;9763;48.780;9.212;2023-02-18T00:02:10;99272.47;;;15.60;56.90
19259;BME280;9763;48.780;9.212;2023-02-18T00:05:33;99283.00;;;15.60;56.96
19259;BME280;9763;48.780;9.212;2023-02-18T00:08:58;99275.22;;;15.59;56.68
19259;BME280;9763;48.780;9.212;2023-02-18T00:12:23;99284.78;;;15.60;56.53
19259;BME280;9763;48.780;9.212;2023-02-18T00:15:48;99286.56;;;15.59;57.06
19259;BME280;9763;48.780;9.212;2023-02-18T00:19:15;99279.53;;;15.60;57.16
19259;BME280;9763;48.780;9.212;2023-02-18T00:22:39;99283.84;;;15.61;56.40
19259;BME280;9763;48.780;9.212;2023-02-18T00:26:07;99277.84;;;15.59;57.00
19259;BME280;9763;48.780;9.212;2023-02-18T00:29:34;99286.47;;;15.61;56.48
19259;BME280;9763;48.780;9.212;2023-02-18T00:33:01;99281.22;;;15.61;56.43
19259;BME280;9763;48.780;9.212;2023-02-18T00:36:26;99281.09;;;15.62;56.88
19259;BME280;9763;48.780;9.212;2023-02-18T00:39:50;99289.22;;;15.59;56.86
19259;BME280;9763;48.780;9.212;2023-02-18T00:43:14;99286.47;;;15.61;56.85
19259;BME280;9763;48.780;9.212;2023-02-18T00:46:38;99273.22;;;15.62;56.40
19259;BME280;9763;48.780;9.212;2023-02-18T00:50:05;99254.06;;;15.60;56.29
19259;BME280;9763;48.780;9.212;2023-02-18T00:53:29;99262.06;;;15.59;56.59
19259;BME280;9763;48.780;9.212;2023-02-18T00:56:53;99249.03;;;15.57;56.96
19259;BME280;9763;48.780;9.212;2023-02-18T01:00:17;99252.63;;;15.56;56.38
19259;BME280;9763;48.780;9.212;2023-02-18T01:03:43;99253.44;;;15.57;56.29
19259;BME280;9763;48.780;9.212;2023-02-18T01:07:10;99255.13;;;15.58;56.33
19259;BME280;9763;48.780;9.212;2023-02-18T01:10:39;99259.66;;;15.56;56.84
19259;BME280;9763;48.780;9.212;2023-02-18T01:14:03;99243.94;;;15.54;56.90
19259;BME280;9763;48.780;9.212;2023-02-18T01:17:28;99246.59;;;15.54;56.67
19259;BME280;9763;48.780;9.212;2023-02-18T01:20:52;99245.84;;;15.52;56.48
19259;BME280;9763;48.780;9.212;2023-02-18T01:24:18;99237.09;;;15.52;56.37
19259;BME280;9763;48.780;9.212;2023-02-18T01:27:41;99245.22;;;15.48;57.02
19259;BME280;9763;48.780;9.212;2023-02-18T01:31:06;99249.31;;;15.53;56.70
19259;BME280;9763;48.780;9.212;2023-02-18T01:34:31;99229.13;;;15.53;57.14
19259;BME280;9763;48.780;9.212;2023-02-18T01:37:54;99230.16;;;15.50;56.50
19259;BME280;9763;48.780;9.212;2023-02-18T01:41:20;99230.47;;;15.46;57.04
19259;BME280;9763;48.780;9.212;2023-02-18T01:44:46;99234.41;;;15.40;56.62
19259;BME280;9763;48.780;9.212;2023-02-18T01:48:21;99235.47;;;15.38;57.15
19259;BME280;9763;48.780;9.212;2023-02-18T01:51:50;99225.41;;;15.32;57.09
19259;BME280;9763;48.780;9.212;2023-02-18T01:55:16;99224.03;;;15.26;57.10
19259;BME280;9763;48.780;9.212;2023-02-18T01:58:41;99220.66;;;15.24;57.27
19259;BME280;9763;48.780;9.212;2023-02-18T02:02:10;99216.34;;;15.23;56.87
19259;BME280;9763;48.780;9.212;2023-02-18T02:05:36;99231.72;;;15.29;56.48
19259;BME280;9763;48.780;9.212;2023-02-18T02:09:05;99236.88;;;15.31;56.57
19259;BME280;9763;48.780;9.212;2023-02-18T02:12:42;99225.28;;;15.33;57.05
19259;BME280;9763;48.780;9.212;2023-02-18T02:16:16;99242.63;;;15.36;56.41
19259;BME280;9763;48.780;9.212;2023-02-18T02:20:17;99239.16;;;15.35;56.95
19259;BME280;9763;48.780;9.212;2023-02-18T02:28:11;99233.78;;;15.37;56.42
19259;BME280;9763;48.780;9.212;2023-02-18T02:32:01;99231.03;;;15.38;56.46
19259;BME280;9763;48.780;9.212;2023-02-18T02:35:32;99230.94;;;15.40;56.49
19259;BME280;9763;48.780;9.212;2023-02-18T02:39:07;99220.19;;;15.43;56.87
19259;BME280;9763;48.780;9.212;2023-02-18T02:42:43;99215.69;;;15.45;56.75
19259;BME280;9763;48.780;9.212;2023-02-18T02:46:18;99216.28;;;15.48;56.79
19259;BME280;9763;48.780;9.212;2023-02-18T02:49:50;99207.31;;;15.51;56.03
19259;BME280;9763;48.780;9.212;2023-02-18T02:53:20;99203.75;;;15.52;56.47
19259;BME280;9763;48.780;9.212;2023-02-18T02:56:46;99200.94;;;15.55;56.40
19259;BME280;9763;48.780;9.212;2023-02-18T03:00:17;99204.41;;;15.56;56.07
19259;BME280;9763;48.780;9.212;2023-02-18T03:07:50;99194.38;;;15.61;55.83
19259;BME280;9763;48.780;9.212;2023-02-18T03:11:19;99202.03;;;15.64;55.86
19259;BME280;9763;48.780;9.212;2023-02-18T03:14:45;99209.94;;;15.64;55.81
19259;BME280;9763;48.780;9.212;2023-02-18T03:18:19;99210.88;;;15.63;56.24
19259;BME280;9763;48.780;9.212;2023-02-18T03:21:50;99190.16;;;15.58;56.19
19259;BME280;9763;48.780;9.212;2023-02-18T03:25:17;99199.75;;;15.59;55.61
19259;BME280;9763;48.780;9.212;2023-02-18T03:28:45;99176.31;;;15.56;55.79
19259;BME280;9763;48.780;9.212;2023-02-18T03:32:15;99179.22;;;15.52;56.22
19259;BME280;9763;48.780;9.212;2023-02-18T03:35:43;99171.66;;;15.47;56.35
19259;BME280;9763;48.780;9.212;2023-02-18T03:39:13;99173.78;;;15.42;56.44
19259;BME280;9763;48.780;9.212;2023-02-18T03:42:37;99170.84;;;15.34;56.44
19259;BME280;9763;48.780;9.212;2023-02-18T03:46:03;99165.22;;;15.27;56.11
19259;BME280;9763;48.780;9.212;2023-02-18T03:49:27;99170.09;;;15.21;56.07
19259;BME280;9763;48.780;9.212;2023-02-18T03:52:51;99183.88;;;15.11;56.14
19259;BME280;9763;48.780;9.212;2023-02-18T03:56:16;99184.75;;;14.99;56.73
19259;BME280;9763;48.780;9.212;2023-02-18T03:59:40;99185.59;;;14.87;56.76
19259;BME280;9763;48.780;9.212;2023-02-18T04:03:05;99183.00;;;14.74;56.79
19259;BME280;9763;48.780;9.212;2023-02-18T04:06:29;99179.97;;;14.68;56.91
19259;BME280;9763;48.780;9.212;2023-02-18T04:09:52;99181.66;;;14.69;56.80
19259;BME280;9763;48.780;9.212;2023-02-18T04:13:16;99183.94;;;14.73;56.44
19259;BME280;9763;48.780;9.212;2023-02-18T04:16:40;99173.84;;;14.80;56.92
19259;BME280;9763;48.780;9.212;2023-02-18T04:20:06;99173.66;;;14.83;56.50
19259;BME280;9763;48.780;9.212;2023-02-18T04:23:30;99174.25;;;14.87;56.25
19259;BME280;9763;48.780;9.212;2023-02-18T04:26:54;99162.69;;;14.89;56.47
19259;BME280;9763;48.780;9.212;2023-02-18T04:30:18;99161.94;;;14.87;56.32
19259;BME280;9763;48.780;9.212;2023-02-18T04:33:42;99152.72;;;14.82;56.25
19259;BME280;9763;48.780;9.212;2023-02-18T04:37:08;99151.59;;;14.73;56.90
19259;BME280;9763;48.780;9.212;2023-02-18T04:40:31;99162.72;;;14.64;57.04
19259;BME280;9763;48.780;9.212;2023-02-18T04:43:55;99168.50;;;14.56;56.72
19259;BME280;9763;48.780;9.212;2023-02-18T04:47:21;99170.72;;;14.50;57.26
19259;BME280;9763;48.780;9.212;2023-02-18T04:50:45;99170.00;;;14.48;56.68
19259;BME280;9763;48.780;9.212;2023-02-18T04:54:09;99171.78;;;14.47;57.08
19259;BME280;9763;48.780;9.212;2023-02-18T04:57:33;99177.88;;;14.48;56.65
19259;BME280;9763;48.780;9.212;2023-02-18T05:00:58;99175.44;;;14.45;57.26
19259;BME280;9763;48.780;9.212;2023-02-18T05:04:22;99173.97;;;14.40;57.22
19259;BME280;9763;48.780;9.212;2023-02-18T05:07:46;99173.19;;;14.38;56.74
19259;BME280;9763;48.780;9.212;2023-02-18T05:11:11;99169.41;;;14.30;56.83
19259;BME280;9763;48.780;9.212;2023-02-18T05:14:35;99177.09;;;14.33;57.15
19259;BME280;9763;48.780;9.212;2023-02-18T05:17:59;99179.91;;;14.30;57.25
19259;BME280;9763;48.780;9.212;2023-02-18T05:21:23;99182.66;;;14.28;57.59
19259;BME280;9763;48.780;9.212;2023-02-18T05:24:47;99183.50;;;14.29;57.06
19259;BME280;9763;48.780;9.212;2023-02-18T05:28:12;99175.72;;;14.27;57.10
19259;BME280;9763;48.780;9.212;2023-02-18T05:31:36;99173.31;;;14.24;56.97
19259;BME280;9763;48.780;9.212;2023-02-18T05:35:00;99170.16;;;14.19;57.16
19259;BME280;9763;48.780;9.212;2023-02-18T05:38:24;99172.22;;;14.14;57.34
19259;BME280;9763;48.780;9.212;2023-02-18T05:41:48;99170.78;;;14.10;57.24
19259;BME280;9763;48.780;9.212;2023-02-18T05:45:13;99159.63;;;14.06;57.72
19259;BME280;9763;48.780;9.212;2023-02-18T05:48:37;99159.63;;;14.06;57.06
19259;BME280;9763;48.780;9.212;2023-02-18T05:52:02;99155.22;;;14.07;57.62
19259;BME280;9763;48.780;9.212;2023-02-18T05:55:26;99158.69;;;14.07;57.37
19259;BME280;9763;48.780;9.212;2023-02-18T05:58:50;99155.03;;;14.10;57.80
19259;BME280;9763;48.780;9.212;2023-02-18T06:02:15;99155.78;;;14.12;57.77
19259;BME280;9763;48.780;9.212;2023-02-18T06:05:38;99154.00;;;14.13;57.44
19259;BME280;9763;48.780;9.212;2023-02-18T06:09:03;99152.91;;;14.15;57.73
19259;BME280;9763;48.780;9.212;2023-02-18T06:12:27;99152.06;;;14.15;57.38
19259;BME280;9763;48.780;9.212;2023-02-18T06:15:51;99160.03;;;14.13;57.74
19259;BME280;9763;48.780;9.212;2023-02-18T06:19:16;99153.25;;;14.11;57.91
19259;BME280;9763;48.780;9.212;2023-02-18T06:22:39;99157.66;;;14.10;57.56
19259;BME280;9763;48.780;9.212;2023-02-18T06:26:03;99139.25;;;13.97;57.93
19259;BME280;9763;48.780;9.212;2023-02-18T06:29:27;99161.97;;;14.11;57.81
19259;BME280;9763;48.780;9.212;2023-02-18T06:32:52;99158.41;;;14.12;57.99
19259;BME280;9763;48.780;9.212;2023-02-18T06:36:18;99163.22;;;14.18;57.88
19259;BME280;9763;48.780;9.212;2023-02-18T06:39:42;99158.28;;;14.26;57.60
19259;BME280;9763;48.780;9.212;2023-02-18T06:43:06;99158.63;;;14.34;57.35
19259;BME280;9763;48.780;9.212;2023-02-18T06:46:29;99156.44;;;14.41;57.27
19259;BME280;9763;48.780;9.212;2023-02-18T06:49:54;99160.34;;;14.48;57.66
19259;BME280;9763;48.780;9.212;2023-02-18T06:53:19;99160.84;;;14.53;57.64
19259;BME280;9763;48.780;9.212;2023-02-18T06:56:43;99159.69;;;14.57;57.59
19259;BME280;9763;48.780;9.212;2023-02-18T07:00:08;99162.94;;;14.61;57.58
19259;BME280;9763;48.780;9.212;2023-02-18T07:03:32;99162.63;;;14.65;57.41
19259;BME280;9763;48.780;9.212;2023-02-18T07:06:56;99162.19;;;14.71;57.72
19259;BME280;9763;48.780;9.212;2023-02-18T07:10:21;99162.81;;;14.75;57.70
19259;BME280;9763;48.780;9.212;2023-02-18T07:13:45;99141.38;;;14.68;57.54
19259;BME280;9763;48.780;9.212;2023-02-18T07:17:08;99161.75;;;14.90;57.15
19259;BME280;9763;48.780;9.212;2023-02-18T07:20:32;99159.63;;;14.95;57.27
19259;BME280;9763;48.780;9.212;2023-02-18T07:23:56;99166.97;;;15.03;57.46
19259;BME280;9763;48.780;9.212;2023-02-18T07:27:22;99150.78;;;15.09;57.14
19259;BME280;9763;48.780;9.212;2023-02-18T07:30:46;99150.31;;;15.15;57.23
19259;BME280;9763;48.780;9.212;2023-02-18T07:34:10;99150.09;;;15.18;57.27
19259;BME280;9763;48.780;9.212;2023-02-18T07:37:34;99141.88;;;15.23;57.30
19259;BME280;9763;48.780;9.212;2023-02-18T07:40:58;99131.03;;;15.27;56.74
19259;BME280;9763;48.780;9.212;2023-02-18T07:44:23;99129.75;;;15.33;57.21
19259;BME280;9763;48.780;9.212;2023-02-18T07:47:49;99129.28;;;15.39;56.70
19259;BME280;9763;48.780;9.212;2023-02-18T07:51:12;99119.50;;;15.41;56.76
19259;BME280;9763;48.780;9.212;2023-02-18T07:54:36;99125.25;;;15.46;57.21
19259;BME280;9763;48.780;9.212;2023-02-18T07:58:00;99122.19;;;15.52;56.76
19259;BME280;9763;48.780;9.212;2023-02-18T08:01:25;99119.84;;;15.60;57.40
19259;BME280;9763;48.780;9.212;2023-02-18T08:04:49;99130.31;;;15.73;57.21
19259;BME280;9763;48.780;9.212;2023-02-18T08:08:15;99121.84;;;15.80;57.03
19259;BME280;9763;48.780;9.212;2023-02-18T08:11:39;99130.22;;;15.85;56.43
19259;BME280;9763;48.780;9.212;2023-02-18T08:15:04;99118.63;;;15.88;56.51
19259;BME280;9763;48.780;9.212;2023-02-18T08:18:29;99121.25;;;15.88;56.92
19259;BME280;9763;48.780;9.212;2023-02-18T08:21:53;99129.88;;;15.90;56.76
19259;BME280;9763;48.780;9.212;2023-02-18T08:25:17;99142.00;;;15.93;56.48
19259;BME280;9763;48.780;9.212;2023-02-18T08:28:51;99131.59;;;16.02;56.77
19259;BME280;9763;48.780;9.212;2023-02-18T08:32:15;99126.97;;;16.17;56.72
19259;BME280;9763;48.780;9.212;2023-02-18T08:35:41;99128.28;;;16.34;56.48
19259;BME280;9763;48.780;9.212;2023-02-18T08:39:05;99116.44;;;16.39;56.38
19259;BME280;9763;48.780;9.212;2023-02-18T08:42:29;99115.97;;;16.45;56.17
19259;BME280;9763;48.780;9.212;2023-02-18T08:45:53;99107.59;;;16.51;56.16
19259;BME280;9763;48.780;9.212;2023-02-18T08:49:17;99107.09;;;16.57;56.00
19259;BME280;9763;48.780;9.212;2023-02-18T08:52:43;99119.22;;;16.60;55.96
19259;BME280;9763;48.780;9.212;2023-02-18T08:56:08;99107.72;;;16.61;55.42
19259;BME280;9763;48.780;9.212;2023-02-18T08:59:32;99111.69;;;16.78;55.19
19259;BME280;9763;48.780;9.212;2023-02-18T09:02:56;99109.72;;;16.91;55.65
19259;BME280;9763;48.780;9.212;2023-02-18T09:06:20;99104.19;;;17.05;55.22
19259;BME280;9763;48.780;9.212;2023-02-18T09:09:46;99088.94;;;17.20;55.27
19259;BME280;9763;48.780;9.212;2023-02-18T09:13:10;99097.78;;;17.30;55.35
19259;BME280;9763;48.780;9.212;2023-02-18T09:16:34;99088.41;;;17.37;55.11
19259;BME280;9763;48.780;9.212;2023-02-18T09:19:59;99090.53;;;17.43;55.04
19259;BME280;9763;48.780;9.212;2023-02-18T09:23:24;99095.28;;;17.60;54.84
19259;BME280;9763;48.780;9.212;2023-02-18T09:26:49;99078.16;;;17.76;54.30
19259;BME280;9763;48.780;9.212;2023-02-18T09:30:14;99076.16;;;17.89;54.05
19259;BME280;9763;48.780;9.212;2023-02-18T09:33:41;99077.66;;;18.03;54.07
19259;BME280;9763;48.780;9.212;2023-02-18T09:37:07;99079.66;;;18.10;53.58
19259;BME280;9763;48.780;9.212;2023-02-18T09:40:33;99079.50;;;18.12;53.19
19259;BME280;9763;48.780;9.212;2023-02-18T09:44:02;99084.63;;;18.04;53.05
19259;BME280;9763;48.780;9.212;2023-02-18T09:47:32;99070.13;;;17.98;53.27
19259;BME280;9763;48.780;9.212;2023-02-18T09:50:57;99069.84;;;18.01;53.54
19259;BME280;9763;48.780;9.212;2023-02-18T09:54:22;99069.84;;;18.01;52.85
19259;BME280;9763;48.780;9.212;2023-02-18T09:57:47;99074.72;;;17.96;53.32
19259;BME280;9763;48.780;9.212;2023-02-18T10:01:21;99079.66;;;17.89;53.12
19259;BME280;9763;48.780;9.212;2023-02-18T10:04:48;99086.31;;;17.84;53.54
19259;BME280;9763;48.780;9.212;2023-02-18T10:08:22;99080.31;;;17.82;53.25
19259;BME280;9763;48.780;9.212;2023-02-18T10:11:51;99079.72;;;17.78;53.42
19259;BME280;9763;48.780;9.212;2023-02-18T10:15:22;99078.88;;;17.78;53.15
19259;BME280;9763;48.780;9.212;2023-02-18T10:18:49;99082.59;;;17.75;52.62
19259;BME280;9763;48.780;9.212;2023-02-18T10:22:15;99082.28;;;17.69;53.04
19259;BME280;9763;48.780;9.212;2023-02-18T10:25:44;99076.53;;;17.75;53.00
19259;BME280;9763;48.780;9.212;2023-02-18T10:29:15;99071.84;;;17.88;52.63
19259;BME280;9763;48.780;9.212;2023-02-18T10:32:44;99072.31;;;17.93;52.57
19259;BME280;9763;48.780;9.212;2023-02-18T10:36:25;99087.66;;;17.99;52.42
19259;BME280;9763;48.780;9.212;2023-02-18T10:39:59;99078.91;;;17.98;52.92
19259;BME280;9763;48.780;9.212;2023-02-18T10:43:41;99075.97;;;18.02;52.41
19259;BME280;9763;48.780;9.212;2023-02-18T10:47:19;99069.00;;;18.00;52.84
19259;BME280;9763;48.780;9.212;2023-02-18T10:50:47;99060.13;;;18.02;52.87
19259;BME280;9763;48.780;9.212;2023-02-18T10:54:13;99066.38;;;18.00;52.70
19259;BME280;9763;48.780;9.212;2023-02-18T10:57:46;99075.13;;;18.01;52.29
19259;BME280;9763;48.780;9.212;2023-02-18T11:01:14;99069.16;;;17.99;52.17
19259;BME280;9763;48.780;9.212;2023-02-18T11:04:43;99059.41;;;17.99;52.59
19259;BME280;9763;48.780;9.212;2023-02-18T11:08:10;99066.38;;;18.00;52.75
19259;BME280;9763;48.780;9.212;2023-02-18T11:11:38;99065.53;;;18.00;52.67
19259;BME280;9763;48.780;9.212;2023-02-18T11:15:16;99052.59;;;17.97;52.74
19259;BME280;9763;48.780;9.212;2023-02-18T11:18:42;99050.09;;;17.95;52.72
19259;BME280;9763;48.780;9.212;2023-02-18T11:22:17;99053.44;;;17.97;52.49
19259;BME280;9763;48.780;9.212;2023-02-18T11:25:53;99037.47;;;17.99;52.67
19259;BME280;9763;48.780;9.212;2023-02-18T11:29:21;99039.94;;;18.00;52.13
19259;BME280;9763;48.780;9.212;2023-02-18T11:32:48;99020.19;;;17.95;52.29
19259;BME280;9763;48.780;9.212;2023-02-18T11:36:22;99031.84;;;17.92;52.31
19259;BME280;9763;48.780;9.212;2023-02-18T11:39:48;99025.59;;;17.93;52.04
19259;BME280;9763;48.780;9.212;2023-02-18T11:43:15;99032.03;;;18.00;52.58
19259;BME280;9763;48.780;9.212;2023-02-18T11:46:56;99013.63;;;18.10;52.10
19259;BME280;9763;48.780;9.212;2023-02-18T11:50:22;99017.50;;;18.16;52.29
19259;BME280;9763;48.780;9.212;2023-02-18T11:54:00;99008.75;;;18.15;50.95
19259;BME280;9763;48.780;9.212;2023-02-18T11:57:24;99005.41;;;18.13;51.54
19259;BME280;9763;48.780;9.212;2023-02-18T12:00:52;99025.00;;;18.11;50.47
19259;BME280;9763;48.780;9.212;2023-02-18T12:04:27;99003.81;;;18.01;49.92
19259;BME280;9763;48.780;9.212;2023-02-18T12:07:57;99000.75;;;17.96;50.09
19259;BME280;9763;48.780;9.212;2023-02-18T12:11:27;98998.09;;;17.96;50.72
19259;BME280;9763;48.780;9.212;2023-02-18T12:14:54;98999.38;;;18.02;51.12
19259;BME280;9763;48.780;9.212;2023-02-18T12:22:31;98994.28;;;18.10;50.50
19259;BME280;9763;48.780;9.212;2023-02-18T12:26:03;98993.72;;;18.16;50.49
19259;BME280;9763;48.780;9.212;2023-02-18T12:29:40;98970.53;;;18.19;50.13
19259;BME280;9763;48.780;9.212;2023-02-18T12:33:14;98975.22;;;18.16;49.61
19259;BME280;9763;48.780;9.212;2023-02-18T12:36:57;98969.53;;;18.11;49.17
19259;BME280;9763;48.780;9.212;2023-02-18T12:40:46;98966.69;;;18.03;49.08
19259;BME280;9763;48.780;9.212;2023-02-18T12:44:25;98973.38;;;17.97;49.71
19259;BME280;9763;48.780;9.212;2023-02-18T12:48:14;98973.25;;;17.98;49.53
19259;BME280;9763;48.780;9.212;2023-02-18T12:51:56;98957.81;;;18.04;49.57
19259;BME280;9763;48.780;9.212;2023-02-18T12:55:35;98967.28;;;18.06;48.45
19259;BME280;9763;48.780;9.212;2023-02-18T12:59:10;98950.97;;;18.01;48.24
19259;BME280;9763;48.780;9.212;2023-02-18T13:07:15;98947.22;;;17.94;48.05
19259;BME280;9763;48.780;9.212;2023-02-18T13:10:55;98958.88;;;17.91;48.12
19259;BME280;9763;48.780;9.212;2023-02-18T13:14:29;98943.72;;;17.93;47.80
19259;BME280;9763;48.780;9.212;2023-02-18T13:17:57;98947.47;;;17.91;48.11
19259;BME280;9763;48.780;9.212;2023-02-18T13:21:22;98933.69;;;17.87;47.88
19259;BME280;9763;48.780;9.212;2023-02-18T13:24:48;98941.06;;;17.84;48.01
19259;BME280;9763;48.780;9.212;2023-02-18T13:28:21;98938.78;;;17.79;48.11
19259;BME280;9763;48.780;9.212;2023-02-18T13:31:56;98927.66;;;17.76;47.95
19259;BME280;9763;48.780;9.212;2023-02-18T13:35:33;98933.47;;;17.70;47.61
19259;BME280;9763;48.780;9.212;2023-02-18T13:39:03;98927.63;;;17.66;47.96
19259;BME280;9763;48.780;9.212;2023-02-18T13:42:36;98915.50;;;17.63;47.74
19259;BME280;9763;48.780;9.212;2023-02-18T13:46:08;98928.56;;;17.65;47.46
19259;BME280;9763;48.780;9.212;2023-02-18T13:49:37;98922.72;;;17.61;47.52
19259;BME280;9763;48.780;9.212;2023-02-18T13:53:23;98924.53;;;17.61;47.62
19259;BME280;9763;48.780;9.212;2023-02-18T13:56:51;98911.56;;;17.58;47.58
19259;BME280;9763;48.780;9.212;2023-02-18T14:00:21;98910.59;;;17.59;47.55
19259;BME280;9763;48.780;9.212;2023-02-18T14:03:58;98916.34;;;17.64;47.68
19259;BME280;9763;48.780;9.212;2023-02-18T14:07:36;98901.78;;;17.70;47.57
19259;BME280;9763;48.780;9.212;2023-02-18T14:11:33;98898.91;;;17.73;47.49
19259;BME280;9763;48.780;9.212;2023-02-18T14:19:00;98876.38;;;17.78;47.81
19259;BME280;9763;48.780;9.212;2023-02-18T14:22:31;98884.56;;;17.75;48.04
19259;BME280;9763;48.780;9.212;2023-02-18T14:26:03;98885.84;;;17.81;47.85
19259;BME280;9763;48.780;9.212;2023-02-18T14:29:30;98874.59;;;17.79;47.02
19259;BME280;9763;48.780;9.212;2023-02-18T14:32:58;98870.28;;;17.78;47.66
19259;BME280;9763;48.780;9.212;2023-02-18T14:36:30;98857.44;;;17.63;47.38
19259;BME280;9763;48.780;9.212;2023-02-18T14:40:09;98883.88;;;17.73;47.29
19259;BME280;9763;48.780;9.212;2023-02-18T14:47:55;98884.88;;;17.82;47.90
19259;BME280;9763;48.780;9.212;2023-02-18T14:51:24;98867.84;;;17.95;47.40
19259;BME280;9763;48.780;9.212;2023-02-18T14:54:49;98883.56;;;18.07;47.45
19259;BME280;9763;48.780;9.212;2023-02-18T14:58:24;98872.19;;;18.16;47.26
19259;BME280;9763;48.780;9.212;2023-02-18T15:01:53;98876.50;;;18.17;47.30
19259;BME280;9763;48.780;9.212;2023-02-18T15:05:20;98878.72;;;18.12;47.13
19259;BME280;9763;48.780;9.212;2023-02-18T15:08:47;98887.19;;;18.06;46.50
19259;BME280;9763;48.780;9.212;2023-02-18T15:12:15;98870.91;;;18.00;47.21
19259;BME280;9763;48.780;9.212;2023-02-18T15:15:44;98896.75;;;17.97;46.97
19259;BME280;9763;48.780;9.212;2023-02-18T15:19:13;98892.56;;;17.94;47.46
19259;BME280;9763;48.780;9.212;2023-02-18T15:22:39;98882.28;;;17.91;46.91
19259;BME280;9763;48.780;9.212;2023-02-18T15:26:04;98890.75;;;17.85;46.94
19259;BME280;9763;48.780;9.212;2023-02-18T15:29:34;98896.97;;;17.75;46.91
19259;BME280;9763;48.780;9.212;2023-02-18T15:33:00;98894.97;;;17.67;47.75
19259;BME280;9763;48.780;9.212;2023-02-18T15:36:25;98890.06;;;17.62;47.11
19259;BME280;9763;48.780;9.212;2023-02-18T15:39:50;98884.47;;;17.56;47.88
19259;BME280;9763;48.780;9.212;2023-02-18T15:43:17;98877.09;;;17.50;47.52
19259;BME280;9763;48.780;9.212;2023-02-18T15:46:41;98901.09;;;17.47;47.50
19259;BME280;9763;48.780;9.212;2023-02-18T15:50:17;98893.44;;;17.44;47.56
19259;BME280;9763;48.780;9.212;2023-02-18T15:53:44;98886.91;;;17.38;48.16
19259;BME280;9763;48.780;9.212;2023-02-18T15:57:13;98897.81;;;17.34;47.68
19259;BME280;9763;48.780;9.212;2023-02-18T16:00:40;98882.66;;;17.26;47.88
19259;BME280;9763;48.780;9.212;2023-02-18T16:04:06;98874.41;;;17.19;48.25
19259;BME280;9763;48.780;9.212;2023-02-18T16:07:48;98884.53;;;17.14;48.68
19259;BME280;9763;48.780;9.212;2023-02-18T16:11:13;98878.09;;;17.07;48.91
19259;BME280;9763;48.780;9.212;2023-02-18T16:14:42;98880.28;;;17.02;48.32
19259;BME280;9763;48.780;9.212;2023-02-18T16:18:24;98887.59;;;16.99;49.00
19259;BME280;9763;48.780;9.212;2023-02-18T16:21:49;98882.47;;;16.97;49.01
19259;BME280;9763;48.780;9.212;2023-02-18T16:25:20;98875.50;;;16.96;48.66
19259;BME280;9763;48.780;9.212;2023-02-18T16:28:45;98876.72;;;16.92;49.25
19259;BME280;9763;48.780;9.212;2023-02-18T16:32:10;98877.25;;;16.86;49.28
19259;BME280;9763;48.780;9.212;2023-02-18T16:35:34;98877.50;;;16.83;49.33
19259;BME280;9763;48.780;9.212;2023-02-18T16:39:11;98870.00;;;16.78;49.36
19259;BME280;9763;48.780;9.212;2023-02-18T16:42:36;98864.50;;;16.70;49.35
19259;BME280;9763;48.780;9.212;2023-02-18T16:46:06;98870.84;;;16.68;49.38
19259;BME280;9763;48.780;9.212;2023-02-18T16:49:31;98876.13;;;16.68;49.68
19259;BME280;9763;48.780;9.212;2023-02-18T16:52:55;98875.44;;;16.66;49.75
19259;BME280;9763;48.780;9.212;2023-02-18T16:56:21;98879.25;;;16.62;49.51
19259;BME280;9763;48.780;9.212;2023-02-18T16:59:47;98886.22;;;16.63;49.33
19259;BME280;9763;48.780;9.212;2023-02-18T17:03:12;98883.66;;;16.61;49.91
19259;BME280;9763;48.780;9.212;2023-02-18T17:06:35;98889.91;;;16.60;50.04
19259;BME280;9763;48.780;9.212;2023-02-18T17:09:59;98894.00;;;16.64;49.45
19259;BME280;9763;48.780;9.212;2023-02-18T17:13:25;98895.41;;;16.68;49.22
19259;BME280;9763;48.780;9.212;2023-02-18T17:16:52;98901.50;;;16.69;49.42
19259;BME280;9763;48.780;9.212;2023-02-18T17:20:17;98896.38;;;16.67;49.31
19259;BME280;9763;48.780;9.212;2023-02-18T17:23:41;98897.34;;;16.66;49.86
19259;BME280;9763;48.780;9.212;2023-02-18T17:27:05;98909.69;;;16.66;49.48
19259;BME280;9763;48.780;9.212;2023-02-18T17:30:34;98925.63;;;16.64;49.88
19259;BME280;9763;48.780;9.212;2023-02-18T17:34:03;98925.84;;;16.61;50.01
19259;BME280;9763;48.780;9.212;2023-02-18T17:37:27;98931.25;;;16.60;50.07
19259;BME280;9763;48.780;9.212;2023-02-18T17:40:51;98933.16;;;16.57;49.90
19259;BME280;9763;48.780;9.212;2023-02-18T17:44:17;98935.22;;;16.54;50.28
19259;BME280;9763;48.780;9.212;2023-02-18T17:47:41;98929.72;;;16.46;50.23
19259;BME280;9763;48.780;9.212;2023-02-18T17:51:06;98942.78;;;16.47;50.37
19259;BME280;9763;48.780;9.212;2023-02-18T17:54:30;98951.75;;;16.45;50.51
19259;BME280;9763;48.780;9.212;2023-02-18T17:57:55;98945.91;;;16.41;50.23
19259;BME280;9763;48.780;9.212;2023-02-18T18:01:19;98948.66;;;16.40;50.07
19259;BME280;9763;48.780;9.212;2023-02-18T18:04:45;98960.16;;;16.39;50.75
19259;BME280;9763;48.780;9.212;2023-02-18T18:08:10;98954.06;;;16.38;50.71
19259;BME280;9763;48.780;9.212;2023-02-18T18:11:34;98954.19;;;16.37;50.41
19259;BME280;9763;48.780;9.212;2023-02-18T18:14:59;98953.34;;;16.36;50.79
19259;BME280;9763;48.780;9.212;2023-02-18T18:18:24;98955.97;;;16.36;50.29
19259;BME280;9763;48.780;9.212;2023-02-18T18:21:48;98953.34;;;16.36;50.67
19259;BME280;9763;48.780;9.212;2023-02-18T18:25:23;98961.97;;;16.38;50.54
19259;BME280;9763;48.780;9.212;2023-02-18T18:28:48;98965.44;;;16.39;50.33
19259;BME280;9763;48.780;9.212;2023-02-18T18:32:11;98968.06;;;16.39;50.39
19259;BME280;9763;48.780;9.212;2023-02-18T18:35:35;98972.38;;;16.40;50.86
19259;BME280;9763;48.780;9.212;2023-02-18T18:39:00;98968.19;;;16.37;50.66
19259;BME280;9763;48.780;9.212;2023-02-18T18:42:25;98972.72;;;16.35;50.60
19259;BME280;9763;48.780;9.212;2023-02-18T18:45:50;98983.50;;;16.32;51.18
19259;BME280;9763;48.780;9.212;2023-02-18T18:49:14;98978.50;;;16.29;51.06
19259;BME280;9763;48.780;9.212;2023-02-18T18:52:38;98988.78;;;16.32;51.22
19259;BME280;9763;48.780;9.212;2023-02-18T18:56:06;98981.84;;;16.31;51.20
19259;BME280;9763;48.780;9.212;2023-02-18T18:59:32;98986.25;;;16.31;51.07